Time;durP1;ratioP1;P1;durP2;ratioP2;P2;SDS_P1;SDS_P2;PMS_P1;PMS_P2;Temp;Humidity;BMP_temperature;BMP_pressure;BME280_temperature;BME280_humidity;BME280_pressure;Samples;Min_cycle;Max_cycle;Signal;HPM_P1;HPM_P2
2022/10/24 00:02:16;;;;;;;5.07;1.93;;;17.60;99.90;;;;;;4972481;28;20184;-66
2022/10/24 00:04:42;;;;;;;2.83;1.57;;;17.60;99.90;;;;;;4973395;28;20188;-66
2022/10/24 00:07:08;;;;;;;3.90;2.07;;;17.50;99.90;;;;;;4973775;28;20494;-66
2022/10/24 00:09:34;;;;;;;5.30;2.27;;;17.50;99.90;;;;;;4972466;28;20693;-66
2022/10/24 00:12:00;;;;;;;10.90;2.80;;;17.50;99.90;;;;;;4972037;28;20220;-66
2022/10/24 00:14:26;;;;;;;4.33;2.30;;;17.40;99.90;;;;;;4973214;28;20467;-66
2022/10/24 00:16:52;;;;;;;8.13;2.10;;;17.30;99.90;;;;;;4972504;28;20239;-66
2022/10/24 00:19:18;;;;;;;4.27;2.00;;;17.30;99.90;;;;;;4972663;28;20440;-66
2022/10/24 00:21:44;;;;;;;6.93;2.07;;;17.30;99.90;;;;;;4971519;28;20184;-66
2022/10/24 00:24:09;;;;;;;3.70;1.70;;;17.40;99.90;;;;;;4972711;28;20620;-66
2022/10/24 00:26:35;;;;;;;5.33;2.17;;;17.20;99.90;;;;;;4972479;28;20207;-66
2022/10/24 00:29:01;;;;;;;4.50;1.80;;;17.20;99.90;;;;;;4972298;28;20192;-66
2022/10/24 00:31:27;;;;;;;5.53;2.83;;;17.10;99.90;;;;;;4972033;28;20479;-66
2022/10/24 00:33:53;;;;;;;7.00;2.70;;;17.20;99.90;;;;;;4971958;28;20659;-66
2022/10/24 00:36:20;;;;;;;2.70;2.20;;;17.20;99.90;;;;;;4972667;28;20180;-66
2022/10/24 00:38:47;;;;;;;5.17;2.37;;;17.10;99.90;;;;;;4973208;28;20243;-66
2022/10/24 00:41:15;;;;;;;4.47;2.20;;;17.10;99.90;;;;;;4971531;28;20802;-66
2022/10/24 00:43:40;;;;;;;6.70;1.90;;;17.10;99.90;;;;;;4973112;28;20505;-66
2022/10/24 00:46:06;;;;;;;7.77;2.73;;;17.10;99.90;;;;;;4972324;28;20471;-66
2022/10/24 00:48:40;;;;;;;5.63;1.90;;;17.10;99.90;;;;;;4972264;28;20196;-67
2022/10/24 00:51:15;;;;;;;5.50;1.90;;;17.00;99.90;;;;;;4972159;28;20902;-66
2022/10/24 00:53:48;;;;;;;6.93;1.90;;;16.90;99.90;;;;;;4972217;28;20513;-66
2022/10/24 00:56:17;;;;;;;3.90;2.07;;;16.90;99.90;;;;;;4972986;28;20482;-66
2022/10/24 00:58:44;;;;;;;4.47;2.37;;;16.90;99.90;;;;;;4972697;28;20447;-67
2022/10/24 01:01:11;;;;;;;7.83;2.27;;;16.90;99.90;;;;;;4972931;28;20443;-66
2022/10/24 01:03:36;;;;;;;5.37;1.80;;;16.80;99.90;;;;;;4972010;28;20602;-67
2022/10/24 01:06:08;;;;;;;4.20;2.50;;;16.90;99.90;;;;;;4972992;28;20522;-66
2022/10/24 01:08:46;;;;;;;5.00;2.13;;;16.80;99.90;;;;;;4972609;28;20184;-66
2022/10/24 01:11:26;;;;;;;6.60;2.60;;;16.80;99.90;;;;;;4972853;28;20462;-66
2022/10/24 01:14:11;;;;;;;4.23;1.57;;;16.80;99.90;;;;;;4972588;28;20626;-67
2022/10/24 01:17:02;;;;;;;9.67;2.10;;;16.80;99.90;;;;;;4971039;28;20427;-66
2022/10/24 01:19:45;;;;;;;5.90;2.10;;;16.80;99.90;;;;;;4968797;28;21015;-66
2022/10/24 01:22:28;;;;;;;4.10;2.13;;;16.70;99.90;;;;;;4971950;28;20438;-67
2022/10/24 01:25:14;;;;;;;3.97;1.93;;;16.80;99.90;;;;;;4972670;28;20788;-66
2022/10/24 01:27:55;;;;;;;5.20;2.10;;;16.80;99.90;;;;;;4972227;28;20431;-66
2022/10/24 01:30:21;;;;;;;4.53;2.20;;;16.80;99.90;;;;;;4964827;28;20474;-66
2022/10/24 01:33:14;;;;;;;6.73;2.60;;;16.80;99.90;;;;;;4972413;28;20530;-66
2022/10/24 01:35:48;;;;;;;3.40;2.53;;;16.90;99.90;;;;;;4970171;28;20191;-66
2022/10/24 01:38:33;;;;;;;6.00;2.27;;;16.80;99.90;;;;;;4971523;28;20491;-66
2022/10/24 01:41:18;;;;;;;4.87;2.17;;;16.90;99.90;;;;;;4970766;28;20977;-66
2022/10/24 01:44:05;;;;;;;5.17;2.70;;;16.80;99.90;;;;;;4971794;28;20458;-66
2022/10/24 01:46:36;;;;;;;5.13;3.20;;;16.70;99.90;;;;;;4966543;28;20969;-66
2022/10/24 01:49:16;;;;;;;3.20;2.13;;;16.80;99.90;;;;;;4971660;28;20801;-66
2022/10/24 01:51:44;;;;;;;6.77;2.13;;;16.60;99.90;;;;;;4971449;28;22302;-66
2022/10/24 01:54:11;;;;;;;5.70;2.93;;;16.60;99.90;;;;;;4971442;28;20539;-66
2022/10/24 01:56:36;;;;;;;5.53;2.30;;;16.60;99.90;;;;;;4972221;28;20519;-66
2022/10/24 01:59:27;;;;;;;4.80;2.23;;;16.70;99.90;;;;;;4971252;28;20566;-66
2022/10/24 02:01:57;;;;;;;5.00;2.27;;;16.60;99.90;;;;;;4970931;28;20231;-66
2022/10/24 02:04:25;;;;;;;4.23;2.67;;;16.60;99.90;;;;;;4972415;28;20497;-66
2022/10/24 02:06:52;;;;;;;3.87;3.00;;;16.60;99.90;;;;;;4972229;28;20443;-66
2022/10/24 02:09:18;;;;;;;4.00;2.03;;;16.60;99.90;;;;;;4970116;28;20435;-66
2022/10/24 02:11:45;;;;;;;3.40;2.33;;;16.60;99.90;;;;;;4971898;28;20459;-66
2022/10/24 02:14:24;;;;;;;4.67;2.40;;;16.60;99.90;;;;;;4972089;28;20459;-66
2022/10/24 02:16:50;;;;;;;6.00;2.37;;;16.60;99.90;;;;;;4972299;28;20435;-66
2022/10/24 02:19:16;;;;;;;4.50;2.30;;;16.60;99.90;;;;;;4969859;28;20443;-66
2022/10/24 02:22:27;;;;;;;8.33;2.50;;;16.60;99.90;;;;;;4972063;28;20180;-66
2022/10/24 02:25:05;;;;;;;6.43;2.90;;;16.60;99.90;;;;;;4969826;28;20446;-66
2022/10/24 02:27:43;;;;;;;5.93;2.50;;;16.50;99.90;;;;;;4972011;28;20432;-66
2022/10/24 02:30:18;;;;;;;6.80;3.23;;;16.60;99.90;;;;;;4971603;28;20537;-66
2022/10/24 02:32:48;;;;;;;7.50;2.50;;;16.60;99.90;;;;;;4971400;28;20459;-68
2022/10/24 02:35:18;;;;;;;7.27;3.40;;;16.60;99.90;;;;;;4971581;28;20944;-66
2022/10/24 02:37:48;;;;;;;3.17;2.10;;;16.60;99.90;;;;;;4971919;28;20526;-68
2022/10/24 02:40:16;;;;;;;8.23;3.20;;;16.70;99.90;;;;;;4971131;28;20435;-66
2022/10/24 02:42:44;;;;;;;8.43;3.67;;;16.80;99.90;;;;;;4971942;28;20820;-67
2022/10/24 02:45:11;;;;;;;8.80;6.50;;;16.90;99.90;;;;;;4970639;28;20931;-68
2022/10/24 02:47:40;;;;;;;11.03;2.70;;;16.90;99.90;;;;;;4971760;28;20450;-66
2022/10/24 02:50:06;;;;;;;11.93;3.50;;;16.90;99.90;;;;;;4973746;28;20894;-66
2022/10/24 02:52:33;;;;;;;7.10;2.67;;;16.80;99.90;;;;;;4974668;28;20471;-66
2022/10/24 02:54:58;;;;;;;9.80;3.60;;;16.80;99.90;;;;;;4974503;28;20443;-66
2022/10/24 02:57:25;;;;;;;12.30;3.00;;;16.80;99.90;;;;;;4974531;28;20526;-68
2022/10/24 02:59:52;;;;;;;8.60;3.20;;;16.70;99.90;;;;;;4974238;28;20191;-68
2022/10/24 03:02:18;;;;;;;9.07;4.70;;;16.70;99.90;;;;;;4970858;28;20443;-68
2022/10/24 03:04:43;;;;;;;6.40;3.70;;;16.70;99.90;;;;;;4974395;28;20558;-66
2022/10/24 03:07:09;;;;;;;10.40;4.03;;;16.70;99.90;;;;;;4974907;28;20196;-66
2022/10/24 03:09:34;;;;;;;10.97;3.40;;;16.70;99.90;;;;;;4973325;28;20193;-66
2022/10/24 03:12:00;;;;;;;11.60;3.73;;;16.70;99.90;;;;;;4974549;28;20215;-66
2022/10/24 03:14:25;;;;;;;8.17;2.93;;;16.70;99.90;;;;;;4974206;28;20215;-66
2022/10/24 03:16:51;;;;;;;9.00;4.17;;;16.70;99.90;;;;;;4973532;28;20678;-66
2022/10/24 03:19:16;;;;;;;7.90;3.43;;;16.70;99.90;;;;;;4973737;28;20202;-68
2022/10/24 03:21:42;;;;;;;7.47;3.40;;;16.70;99.90;;;;;;4972938;28;20242;-68
2022/10/24 03:24:08;;;;;;;7.17;3.00;;;16.70;99.90;;;;;;4973607;28;20204;-66
2022/10/24 03:26:34;;;;;;;6.57;3.70;;;16.70;99.90;;;;;;4975298;28;20182;-66
2022/10/24 03:28:59;;;;;;;9.17;3.60;;;16.70;99.90;;;;;;4975057;28;20519;-66
2022/10/24 03:31:25;;;;;;;6.77;2.90;;;16.70;99.90;;;;;;4974483;28;20459;-66
2022/10/24 03:33:51;;;;;;;9.53;3.27;;;16.70;99.90;;;;;;4973285;28;20204;-66
2022/10/24 03:36:17;;;;;;;8.07;3.50;;;16.70;99.90;;;;;;4974262;28;20461;-66
2022/10/24 03:38:42;;;;;;;10.80;4.43;;;16.70;99.90;;;;;;4974148;28;20284;-66
2022/10/24 03:41:08;;;;;;;6.33;3.67;;;16.60;99.90;;;;;;4973207;28;20192;-66
2022/10/24 03:43:33;;;;;;;9.37;4.53;;;16.60;99.90;;;;;;4974124;28;20200;-66
2022/10/24 03:45:59;;;;;;;10.77;3.10;;;16.60;99.90;;;;;;4974311;28;20180;-66
2022/10/24 03:48:25;;;;;;;6.10;3.30;;;16.50;99.90;;;;;;4974034;28;20548;-66
2022/10/24 03:50:50;;;;;;;10.70;3.47;;;16.50;99.90;;;;;;4973416;28;20266;-66
2022/10/24 03:53:16;;;;;;;8.90;3.50;;;16.40;99.90;;;;;;4973278;28;20483;-66
2022/10/24 03:55:41;;;;;;;10.20;3.50;;;16.40;99.90;;;;;;4969459;28;20181;-66
2022/10/24 03:58:07;;;;;;;12.67;3.40;;;16.40;99.90;;;;;;4974012;28;20184;-66
2022/10/24 04:00:38;;;;;;;6.30;3.30;;;16.40;99.90;;;;;;4972343;28;20188;-66
2022/10/24 04:03:04;;;;;;;6.80;3.57;;;16.40;99.90;;;;;;4973885;28;20311;-66
2022/10/24 04:05:29;;;;;;;6.03;3.30;;;16.40;99.90;;;;;;4973233;28;20538;-66
2022/10/24 04:07:55;;;;;;;9.53;4.07;;;16.40;99.90;;;;;;4973973;28;20519;-66
2022/10/24 04:10:20;;;;;;;10.50;3.30;;;16.30;99.90;;;;;;4973529;28;20846;-66
2022/10/24 04:12:46;;;;;;;10.10;4.07;;;16.40;99.90;;;;;;4973032;28;20212;-66
2022/10/24 04:15:12;;;;;;;7.10;3.10;;;16.40;99.90;;;;;;4973724;28;20769;-66
2022/10/24 04:17:37;;;;;;;7.20;3.30;;;16.30;99.90;;;;;;4973039;28;20176;-66
2022/10/24 04:20:04;;;;;;;6.83;3.00;;;16.30;99.90;;;;;;4973417;28;20676;-66
2022/10/24 04:22:29;;;;;;;10.33;3.83;;;16.30;99.90;;;;;;4972846;28;20208;-66
2022/10/24 04:24:55;;;;;;;13.37;4.03;;;16.30;99.90;;;;;;4972856;28;20464;-66
2022/10/24 04:27:20;;;;;;;7.03;3.00;;;16.30;99.90;;;;;;4971384;28;20188;-66
2022/10/24 04:29:46;;;;;;;5.23;2.90;;;16.30;99.90;;;;;;4972455;28;20604;-66
2022/10/24 04:32:12;;;;;;;6.47;3.20;;;16.30;99.90;;;;;;4972368;28;20630;-66
2022/10/24 04:34:37;;;;;;;13.67;3.77;;;16.30;99.90;;;;;;4972601;28;20286;-66
2022/10/24 04:37:03;;;;;;;4.07;2.70;;;16.40;99.90;;;;;;4971912;28;20186;-66
2022/10/24 04:39:29;;;;;;;35.93;4.50;;;16.30;99.90;;;;;;4971774;28;20647;-66
2022/10/24 04:41:54;;;;;;;7.30;4.13;;;16.30;99.90;;;;;;4972552;28;20498;-66
2022/10/24 04:44:20;;;;;;;5.20;3.00;;;16.40;99.90;;;;;;4972353;28;20919;-66
2022/10/24 04:46:45;;;;;;;10.73;3.80;;;16.30;99.90;;;;;;4973384;28;20187;-66
2022/10/24 04:49:11;;;;;;;10.20;4.10;;;16.30;99.90;;;;;;4972950;28;20192;-66
2022/10/24 04:51:36;;;;;;;12.10;3.17;;;16.30;99.90;;;;;;4973080;28;20208;-66
2022/10/24 04:54:02;;;;;;;4.30;3.10;;;16.30;99.90;;;;;;4971626;28;20586;-68
2022/10/24 04:56:28;;;;;;;12.83;3.80;;;16.30;99.90;;;;;;4973047;28;20539;-66
2022/10/24 04:58:53;;;;;;;5.90;3.57;;;16.30;99.90;;;;;;4971750;28;20173;-66
2022/10/24 05:01:19;;;;;;;6.83;2.93;;;16.30;99.90;;;;;;4972622;28;20649;-66
2022/10/24 05:03:44;;;;;;;7.47;3.13;;;16.30;99.90;;;;;;4972538;28;20207;-66
2022/10/24 05:06:10;;;;;;;6.47;3.43;;;16.40;99.90;;;;;;4970847;28;20184;-68
2022/10/24 05:08:35;;;;;;;6.70;3.10;;;16.40;99.90;;;;;;4972398;28;20323;-66
2022/10/24 05:11:01;;;;;;;4.23;3.50;;;16.50;99.90;;;;;;4972215;28;20208;-66
2022/10/24 05:13:27;;;;;;;11.33;3.33;;;16.50;99.90;;;;;;4971888;28;20224;-66
2022/10/24 05:15:53;;;;;;;4.80;2.93;;;16.70;99.90;;;;;;4972864;28;20555;-68
2022/10/24 05:18:18;;;;;;;5.53;3.30;;;16.70;99.90;;;;;;4971643;28;20203;-66
2022/10/24 05:20:44;;;;;;;5.90;3.10;;;16.80;99.90;;;;;;4972748;28;20234;-66
2022/10/24 05:23:09;;;;;;;11.53;2.97;;;16.80;99.90;;;;;;4972510;28;20290;-66
2022/10/24 05:25:35;;;;;;;5.73;3.20;;;16.80;99.90;;;;;;4970554;28;20184;-66
2022/10/24 05:28:00;;;;;;;6.53;2.87;;;16.90;99.90;;;;;;4971945;28;20189;-65
2022/10/24 05:30:26;;;;;;;5.93;2.97;;;16.80;99.90;;;;;;4968876;28;20581;-65
2022/10/24 05:32:51;;;;;;;6.90;3.60;;;16.70;99.90;;;;;;4972464;28;20211;-66
2022/10/24 05:35:17;;;;;;;7.33;3.27;;;16.70;99.90;;;;;;4972447;28;20207;-66
2022/10/24 05:37:43;;;;;;;7.63;3.00;;;16.70;99.90;;;;;;4971832;28;20597;-65
2022/10/24 05:40:10;;;;;;;12.67;3.90;;;16.50;99.90;;;;;;4971455;28;20832;-66
2022/10/24 05:42:37;;;;;;;6.03;3.70;;;16.50;99.90;;;;;;4971536;28;20246;-65
2022/10/24 05:45:07;;;;;;;11.00;2.97;;;16.40;99.90;;;;;;4972452;28;20432;-65
2022/10/24 05:47:33;;;;;;;9.00;3.30;;;16.40;99.90;;;;;;4971822;28;20435;-66
2022/10/24 05:49:58;;;;;;;7.73;3.50;;;16.40;99.90;;;;;;4971291;28;20443;-66
2022/10/24 05:52:24;;;;;;;5.60;3.03;;;16.30;99.90;;;;;;4972126;28;20572;-65
2022/10/24 05:54:50;;;;;;;6.83;2.77;;;16.40;99.90;;;;;;4969984;28;20554;-66
2022/10/24 05:57:15;;;;;;;6.80;3.87;;;16.50;99.90;;;;;;4966713;28;20713;-66
2022/10/24 05:59:41;;;;;;;8.20;3.20;;;16.50;99.90;;;;;;4969037;28;20255;-66
2022/10/24 06:02:06;;;;;;;16.93;4.87;;;16.60;99.90;;;;;;4966726;28;20187;-68
2022/10/24 06:04:32;;;;;;;8.37;3.80;;;16.20;99.90;;;;;;4970230;28;20566;-67
2022/10/24 06:06:57;;;;;;;10.03;4.70;;;15.60;99.90;;;;;;4971554;28;20188;-66
2022/10/24 06:09:23;;;;;;;7.57;5.00;;;15.30;99.90;;;;;;4971229;28;20521;-67
2022/10/24 06:11:48;;;;;;;11.00;4.03;;;15.10;99.90;;;;;;4971216;28;20243;-68
2022/10/24 06:14:15;;;;;;;15.27;4.80;;;15.00;99.90;;;;;;4972000;28;20200;-66
2022/10/24 06:16:41;;;;;;;4.00;3.00;;;15.00;99.90;;;;;;4970763;28;20184;-66
2022/10/24 06:19:07;;;;;;;8.40;3.40;;;15.00;99.90;;;;;;4969471;28;20528;-67
2022/10/24 06:21:32;;;;;;;7.23;3.73;;;14.90;99.90;;;;;;4968738;28;20181;-66
2022/10/24 06:23:58;;;;;;;12.10;3.10;;;15.10;99.90;;;;;;4966204;28;20212;-67
2022/10/24 06:26:24;;;;;;;3.10;2.80;;;14.90;99.90;;;;;;4942032;28;20248;-66
2022/10/24 06:28:50;;;;;;;7.93;3.90;;;14.90;99.90;;;;;;4954355;28;20223;-68
2022/10/24 06:31:17;;;;;;;6.37;4.17;;;14.90;99.90;;;;;;4965568;28;20495;-68
2022/10/24 06:33:42;;;;;;;7.07;3.47;;;14.90;99.90;;;;;;4966004;28;20575;-67
2022/10/24 06:36:10;;;;;;;7.40;3.50;;;14.80;99.90;;;;;;4966798;28;20431;-68
2022/10/24 06:38:36;;;;;;;6.50;3.43;;;14.80;99.90;;;;;;4971063;28;20176;-67
2022/10/24 06:41:09;;;;;;;9.07;5.10;;;14.90;99.90;;;;;;4974457;28;20446;-67
2022/10/24 06:43:36;;;;;;;6.90;3.33;;;14.90;99.90;;;;;;4972267;28;20250;-67
2022/10/24 06:46:07;;;;;;;7.63;5.03;;;14.90;99.90;;;;;;4971225;28;20458;-67
2022/10/24 06:48:34;;;;;;;12.37;4.33;;;14.90;99.90;;;;;;4973302;28;20527;-65
2022/10/24 06:51:00;;;;;;;4.20;3.60;;;14.90;99.90;;;;;;4973631;28;20467;-68
2022/10/24 06:53:25;;;;;;;5.20;4.67;;;14.90;99.90;;;;;;4973228;28;20454;-67
2022/10/24 06:55:51;;;;;;;9.37;4.70;;;14.90;99.90;;;;;;4969425;28;20226;-68
2022/10/24 06:58:16;;;;;;;7.30;4.60;;;15.00;99.90;;;;;;4972797;28;20646;-68
2022/10/24 07:00:42;;;;;;;12.23;5.27;;;15.00;99.90;;;;;;4972046;28;20179;-67
2022/10/24 07:03:13;;;;;;;9.90;4.33;;;15.00;99.90;;;;;;4969730;28;20207;-67
2022/10/24 07:05:38;;;;;;;10.20;5.10;;;15.00;99.90;;;;;;4969441;28;20188;-67
2022/10/24 07:08:04;;;;;;;6.80;4.13;;;15.10;99.90;;;;;;4971671;28;20483;-67
2022/10/24 07:10:30;;;;;;;9.40;4.20;;;15.00;99.90;;;;;;4972747;28;20210;-68
2022/10/24 07:12:55;;;;;;;7.23;4.47;;;15.00;99.90;;;;;;4972535;28;20320;-68
2022/10/24 07:15:21;;;;;;;12.90;4.77;;;15.10;99.90;;;;;;4966427;28;20709;-67
2022/10/24 07:17:46;;;;;;;7.70;4.70;;;15.10;99.90;;;;;;4971022;28;20179;-67
2022/10/24 07:20:13;;;;;;;11.77;4.17;;;15.00;99.90;;;;;;4972462;28;20243;-67
2022/10/24 07:22:39;;;;;;;9.67;5.90;;;15.10;99.90;;;;;;4973406;28;20342;-66
2022/10/24 07:25:06;;;;;;;10.67;4.90;;;15.00;99.90;;;;;;4969872;28;21021;-66
2022/10/24 07:27:32;;;;;;;11.60;5.73;;;15.10;99.90;;;;;;4971451;28;20553;-69
2022/10/24 07:29:57;;;;;;;7.50;4.87;;;15.00;99.90;;;;;;4970434;28;20440;-67
2022/10/24 07:32:23;;;;;;;8.70;5.20;;;15.10;99.90;;;;;;4973224;28;20554;-67
2022/10/24 07:34:49;;;;;;;7.97;4.90;;;15.20;99.90;;;;;;4966432;28;20192;-67
2022/10/24 07:37:15;;;;;;;10.27;4.40;;;15.20;99.90;;;;;;4970469;28;20180;-67
2022/10/24 07:39:41;;;;;;;5.87;3.87;;;15.20;99.90;;;;;;4980346;28;20636;-67
2022/10/24 07:42:07;;;;;;;12.70;4.57;;;15.20;99.90;;;;;;4970012;28;20541;-68
2022/10/24 07:44:33;;;;;;;15.07;4.97;;;15.20;99.90;;;;;;4968082;28;20502;-66
2022/10/24 07:46:58;;;;;;;8.50;4.07;;;15.20;99.90;;;;;;4964238;28;20684;-65
2022/10/24 07:49:24;;;;;;;12.67;7.47;;;15.20;99.90;;;;;;4971659;28;20674;-66
2022/10/24 07:51:49;;;;;;;11.07;4.70;;;15.30;99.90;;;;;;4970633;28;20230;-67
2022/10/24 07:54:15;;;;;;;10.87;5.40;;;15.20;99.90;;;;;;4969808;28;20222;-67
2022/10/24 07:56:40;;;;;;;10.33;4.37;;;15.20;99.90;;;;;;4969857;28;20195;-67
2022/10/24 07:59:06;;;;;;;5.10;3.60;;;15.10;99.90;;;;;;4971217;28;20215;-68
2022/10/24 08:01:31;;;;;;;6.30;3.30;;;15.10;99.90;;;;;;4970047;28;20628;-66
2022/10/24 08:03:57;;;;;;;7.63;4.30;;;15.10;99.90;;;;;;4971142;28;20641;-67
2022/10/24 08:06:27;;;;;;;6.23;3.77;;;14.90;99.90;;;;;;4968431;28;20658;-67
2022/10/24 08:08:53;;;;;;;8.57;3.53;;;14.90;99.90;;;;;;4966824;28;20267;-65
2022/10/24 08:11:22;;;;;;;7.63;3.40;;;14.90;99.90;;;;;;4972618;28;20554;-69
2022/10/24 08:13:49;;;;;;;3.97;3.13;;;15.00;99.90;;;;;;4971989;28;20208;-69
2022/10/24 08:16:15;;;;;;;4.47;2.70;;;15.00;99.90;;;;;;4967277;28;20440;-66
2022/10/24 08:18:41;;;;;;;5.43;3.00;;;15.00;99.90;;;;;;4971734;28;20443;-66
2022/10/24 08:21:10;;;;;;;6.73;3.90;;;15.00;99.90;;;;;;4971034;28;20455;-66
2022/10/24 08:23:39;;;;;;;4.53;3.50;;;14.90;99.90;;;;;;4970828;28;20204;-66
2022/10/24 08:26:10;;;;;;;5.83;3.00;;;15.10;99.90;;;;;;4966480;28;20475;-67
2022/10/24 08:28:36;;;;;;;6.17;3.10;;;15.10;99.90;;;;;;4969257;28;22127;-65
2022/10/24 08:31:04;;;;;;;7.90;3.30;;;15.20;99.90;;;;;;4971290;28;20459;-67
2022/10/24 08:33:30;;;;;;;6.23;4.17;;;15.30;99.90;;;;;;4969489;28;20277;-67
2022/10/24 08:36:02;;;;;;;10.43;3.23;;;15.40;99.90;;;;;;4965589;28;20482;-67
2022/10/24 08:38:29;;;;;;;4.53;2.43;;;15.50;99.90;;;;;;4969702;28;20180;-67
2022/10/24 08:40:55;;;;;;;5.50;2.70;;;15.60;99.90;;;;;;4966139;28;20443;-68
2022/10/24 08:43:22;;;;;;;7.73;3.60;;;15.50;99.90;;;;;;4970673;28;20467;-66
2022/10/24 08:46:26;;;;;;;7.03;3.30;;;15.60;99.90;;;;;;4965257;28;20462;-66
2022/10/24 08:49:00;;;;;;;4.70;3.10;;;14.50;99.90;;;;;;4970385;28;20439;-66
2022/10/24 08:51:41;;;;;;;3.50;2.87;;;15.60;99.90;;;;;;4967046;28;20459;-67
2022/10/24 08:54:12;;;;;;;19.23;3.97;;;15.60;99.90;;;;;;4966611;28;20470;-66
2022/10/24 08:56:38;;;;;;;5.50;3.10;;;15.60;99.90;;;;;;4969763;28;20522;-67
2022/10/24 08:59:05;;;;;;;8.87;2.77;;;15.60;99.90;;;;;;4971537;28;20519;-67
2022/10/24 09:01:43;;;;;;;5.70;3.20;;;15.60;99.90;;;;;;4971456;28;20208;-65
2022/10/24 09:04:13;;;;;;;9.83;2.63;;;15.70;99.90;;;;;;4971843;28;21024;-65
2022/10/24 09:06:39;;;;;;;4.87;3.07;;;15.60;99.90;;;;;;4968627;28;20514;-68
2022/10/24 09:09:16;;;;;;;3.63;2.87;;;15.50;99.90;;;;;;4971139;28;20443;-66
2022/10/24 09:12:13;;;;;;;7.50;3.20;;;15.60;99.90;;;;;;4971390;28;20514;-65
2022/10/24 09:14:42;;;;;;;5.20;2.90;;;15.60;99.90;;;;;;4964111;28;20466;-67
2022/10/24 09:17:33;;;;;;;7.60;2.93;;;15.40;99.90;;;;;;4971124;28;20505;-67
2022/10/24 09:20:02;;;;;;;3.63;2.33;;;15.50;99.90;;;;;;4971418;28;20442;-67
2022/10/24 09:22:32;;;;;;;4.47;2.50;;;15.50;99.90;;;;;;4972114;28;20936;-67
2022/10/24 09:25:01;;;;;;;9.87;4.20;;;15.50;99.90;;;;;;4967176;28;21073;-67
2022/10/24 09:27:31;;;;;;;8.03;3.17;;;15.50;99.90;;;;;;4971830;28;20436;-67
2022/10/24 09:29:57;;;;;;;5.90;3.23;;;15.50;99.90;;;;;;4965756;28;20528;-67
2022/10/24 09:32:26;;;;;;;2.63;2.37;;;15.60;99.90;;;;;;4971635;28;20456;-67
2022/10/24 09:34:53;;;;;;;5.63;3.20;;;15.60;99.90;;;;;;4968379;28;20490;-67
2022/10/24 09:37:40;;;;;;;5.17;2.80;;;15.50;99.90;;;;;;4966523;28;20459;-66
2022/10/24 09:40:25;;;;;;;8.87;4.07;;;15.50;99.90;;;;;;4970534;28;20438;-66
2022/10/24 09:43:14;;;;;;;5.63;3.03;;;15.50;99.90;;;;;;4969154;28;20455;-66
2022/10/24 09:45:48;;;;;;;5.17;2.50;;;15.50;99.90;;;;;;4965903;28;21138;-66
2022/10/24 09:48:16;;;;;;;3.90;2.90;;;15.50;99.90;;;;;;4968864;28;20802;-67
2022/10/24 09:50:44;;;;;;;18.33;4.23;;;15.50;99.90;;;;;;4967676;28;20470;-67
2022/10/24 09:53:23;;;;;;;6.03;3.77;;;15.60;99.90;;;;;;4969852;28;20455;-66
2022/10/24 09:55:53;;;;;;;8.07;3.43;;;15.50;99.90;;;;;;4965121;28;20438;-70
2022/10/24 09:58:28;;;;;;;6.00;2.90;;;15.60;99.90;;;;;;4967459;28;20440;-71
2022/10/24 10:01:05;;;;;;;5.60;2.70;;;15.70;99.90;;;;;;4969456;28;20439;-67
2022/10/24 10:03:31;;;;;;;5.93;3.20;;;15.90;99.90;;;;;;4973928;28;20467;-66
2022/10/24 10:06:03;;;;;;;8.73;3.37;;;16.00;99.90;;;;;;4970629;28;20438;-66
2022/10/24 10:08:32;;;;;;;4.13;2.40;;;16.00;99.90;;;;;;4969882;28;20530;-65
2022/10/24 10:10:59;;;;;;;7.07;3.97;;;16.00;99.90;;;;;;4973476;28;21295;-66
2022/10/24 10:13:26;;;;;;;8.13;3.87;;;16.10;99.90;;;;;;4974923;28;20475;-66
2022/10/24 10:16:04;;;;;;;4.43;3.20;;;16.10;99.90;;;;;;4983251;28;20805;-66
2022/10/24 10:18:38;;;;;;;4.63;2.63;;;16.20;99.90;;;;;;4969617;28;20510;-64
2022/10/24 10:21:05;;;;;;;6.63;2.57;;;16.20;99.90;;;;;;4973161;28;20445;-65
2022/10/24 10:23:35;;;;;;;5.10;2.17;;;16.20;99.90;;;;;;4970701;28;20471;-65
2022/10/24 10:26:06;;;;;;;7.70;3.00;;;16.20;99.90;;;;;;4968651;28;20522;-67
2022/10/24 10:28:35;;;;;;;8.27;3.20;;;16.30;99.90;;;;;;4972176;28;20446;-67
2022/10/24 10:31:01;;;;;;;6.63;2.20;;;16.30;99.90;;;;;;4970853;28;20459;-66
2022/10/24 10:33:47;;;;;;;5.90;2.60;;;16.30;99.90;;;;;;4971101;28;20448;-65
2022/10/24 10:36:21;;;;;;;3.47;2.87;;;16.30;99.90;;;;;;4968328;28;20427;-66
2022/10/24 10:39:08;;;;;;;6.77;3.00;;;16.40;99.90;;;;;;4974995;28;20489;-66
2022/10/24 10:41:48;;;;;;;5.53;3.10;;;16.40;99.90;;;;;;4975176;28;21233;-66
2022/10/24 10:44:47;;;;;;;6.07;4.20;;;16.80;99.90;;;;;;4973359;28;20461;-65
2022/10/24 10:47:15;;;;;;;5.87;3.10;;;16.50;99.90;;;;;;4971126;28;20538;-65
2022/10/24 10:49:41;;;;;;;5.60;3.07;;;16.40;99.90;;;;;;4973267;28;20434;-64
2022/10/24 10:52:30;;;;;;;3.40;2.50;;;16.40;99.90;;;;;;4973395;28;20957;-65
2022/10/24 10:55:08;;;;;;;4.43;2.83;;;16.40;99.90;;;;;;4959776;28;20447;-66
2022/10/24 10:58:02;;;;;;;4.73;2.47;;;16.40;99.90;;;;;;4972207;28;20941;-66
2022/10/24 11:00:45;;;;;;;5.30;1.83;;;16.40;99.90;;;;;;4954939;28;20526;-66
2022/10/24 11:03:43;;;;;;;2.83;2.50;;;16.40;99.90;;;;;;4964716;28;20455;-66
2022/10/24 11:06:11;;;;;;;5.23;2.33;;;16.40;99.90;;;;;;4977910;28;20455;-66
2022/10/24 11:09:18;;;;;;;3.77;2.23;;;16.30;99.90;;;;;;4974885;28;20428;-65
2022/10/24 11:11:59;;;;;;;3.00;2.00;;;16.30;99.90;;;;;;4955804;28;20559;-66
2022/10/24 11:14:28;;;;;;;2.97;1.50;;;16.30;99.90;;;;;;4963439;28;20538;-65
2022/10/24 11:17:00;;;;;;;3.90;1.73;;;16.40;99.90;;;;;;4973675;28;20447;-65
2022/10/24 11:19:33;;;;;;;2.77;2.53;;;16.30;99.90;;;;;;4970259;28;20432;-66
2022/10/24 11:22:02;;;;;;;2.43;1.80;;;16.40;99.90;;;;;;4968432;28;20865;-65
2022/10/24 11:24:35;;;;;;;3.53;1.77;;;16.30;99.90;;;;;;4971452;28;20546;-66
2022/10/24 11:27:14;;;;;;;4.20;2.40;;;16.30;99.90;;;;;;4969997;28;20941;-65
2022/10/24 11:30:13;;;;;;;6.57;3.50;;;16.30;99.90;;;;;;4973410;28;20432;-64
2022/10/24 11:33:03;;;;;;;2.53;1.60;;;16.30;99.90;;;;;;4970147;28;21098;-66
2022/10/24 11:35:31;;;;;;;5.60;2.00;;;16.30;99.90;;;;;;4963548;28;20435;-65
2022/10/24 11:38:02;;;;;;;4.60;4.23;;;16.40;99.90;;;;;;4970019;28;20851;-65
2022/10/24 11:40:29;;;;;;;3.77;1.80;;;16.40;99.90;;;;;;4964430;28;20435;-65
2022/10/24 11:43:15;;;;;;;2.53;1.77;;;16.40;99.90;;;;;;4972222;28;20513;-65
2022/10/24 11:45:46;;;;;;;3.10;2.00;;;16.40;99.90;;;;;;4964647;28;20488;-66
2022/10/24 11:48:30;;;;;;;4.17;2.13;;;16.40;99.90;;;;;;4973130;28;20973;-67
2022/10/24 11:51:31;;;;;;;2.10;1.90;;;16.40;99.90;;;;;;4964446;28;20472;-66
2022/10/24 11:54:10;;;;;;;3.17;1.77;;;16.50;99.90;;;;;;4969794;28;20489;-66
2022/10/24 11:56:58;;;;;;;4.00;2.07;;;16.50;99.90;;;;;;4967206;28;20443;-65
2022/10/24 11:59:24;;;;;;;3.53;1.70;;;16.50;99.90;;;;;;4970770;28;20439;-65
2022/10/24 12:02:13;;;;;;;4.20;1.90;;;16.50;99.90;;;;;;4970407;28;20819;-65
2022/10/24 12:04:51;;;;;;;4.30;2.83;;;16.60;99.90;;;;;;4967753;28;20203;-66
2022/10/24 12:08:03;;;;;;;2.53;1.70;;;16.50;99.90;;;;;;4971971;28;20527;-66
2022/10/24 12:10:53;;;;;;;2.90;2.17;;;16.50;99.90;;;;;;4966965;28;20869;-65
2022/10/24 12:13:37;;;;;;;7.43;1.90;;;16.60;99.90;;;;;;4969901;28;20463;-66
2022/10/24 12:16:23;;;;;;;4.57;4.17;;;16.70;99.90;;;;;;4967621;28;20435;-65
2022/10/24 12:18:55;;;;;;;2.77;1.67;;;16.70;99.90;;;;;;4971256;28;20443;-65
2022/10/24 12:21:25;;;;;;;2.60;1.37;;;16.70;99.90;;;;;;4969890;28;20510;-64
2022/10/24 12:23:56;;;;;;;2.90;1.90;;;16.70;99.90;;;;;;4968706;28;20501;-65
2022/10/24 12:26:32;;;;;;;1.53;1.40;;;16.70;99.90;;;;;;4966628;28;20450;-66
2022/10/24 12:29:04;;;;;;;3.57;1.47;;;16.70;99.90;;;;;;4971313;28;20442;-66
2022/10/24 12:31:36;;;;;;;1.70;1.40;;;16.70;99.90;;;;;;4972309;28;20447;-65
2022/10/24 12:34:38;;;;;;;2.67;1.30;;;16.70;99.90;;;;;;4969468;28;20451;-66
2022/10/24 12:37:08;;;;;;;4.83;1.77;;;16.70;99.90;;;;;;4968918;28;20506;-64
2022/10/24 12:39:39;;;;;;;1.23;1.10;;;16.70;99.90;;;;;;4968258;28;20518;-66
2022/10/24 12:42:18;;;;;;;2.80;1.37;;;16.70;99.90;;;;;;4971345;28;20440;-66
2022/10/24 12:44:45;;;;;;;2.60;1.60;;;16.70;99.90;;;;;;4967022;28;20502;-68
2022/10/24 12:47:30;;;;;;;4.70;1.70;;;16.80;99.90;;;;;;4965912;28;20489;-66
2022/10/24 12:50:17;;;;;;;3.93;2.50;;;16.90;99.90;;;;;;4971017;28;20447;-65
2022/10/24 12:52:45;;;;;;;3.43;1.20;;;16.70;99.90;;;;;;4967297;28;20502;-65
2022/10/24 12:55:29;;;;;;;4.10;1.30;;;16.70;99.90;;;;;;4965663;28;20482;-66
2022/10/24 12:57:55;;;;;;;3.13;1.53;;;17.00;99.90;;;;;;4981779;28;20468;-66
2022/10/24 13:00:25;;;;;;;2.10;1.27;;;17.10;99.90;;;;;;4969827;28;20494;-65
2022/10/24 13:02:50;;;;;;;1.30;1.20;;;17.10;99.90;;;;;;4971921;28;20976;-65
2022/10/24 13:05:50;;;;;;;2.07;1.40;;;17.10;99.90;;;;;;4965798;28;20448;-65